createdAt,value
2018-05-03T00:03:46.862Z,4.67
2018-05-03T00:09:52.056Z,4.20
2018-05-03T00:15:56.457Z,4.90
2018-05-03T00:22:01.773Z,4.13
2018-05-03T00:28:06.149Z,5.10
2018-05-03T00:34:10.539Z,4.30
2018-05-03T00:40:15.082Z,4.47
2018-05-03T00:46:20.936Z,4.57
2018-05-03T00:52:25.397Z,4.77
2018-05-03T00:58:29.828Z,4.10
2018-05-03T01:04:34.187Z,4.63
2018-05-03T01:10:38.526Z,4.50
2018-05-03T01:16:43.099Z,4.37
2018-05-03T01:22:48.253Z,5.03
2018-05-03T01:28:53.304Z,4.50
2018-05-03T01:35:15.526Z,6.60
2018-05-03T01:41:20.083Z,5.83
2018-05-03T01:47:24.484Z,6.10
2018-05-03T01:53:28.882Z,7.07
2018-05-03T01:59:34.085Z,5.90
2018-05-03T02:05:38.476Z,6.07
2018-05-03T02:11:42.836Z,6.07
2018-05-03T02:17:47.642Z,5.70
2018-05-03T02:23:52.178Z,5.73
2018-05-03T02:29:56.647Z,6.17
2018-05-03T02:36:01.880Z,5.80
2018-05-03T02:42:06.230Z,5.43
2018-05-03T02:48:11.538Z,6.30
2018-05-03T02:54:15.899Z,6.20
2018-05-03T03:00:44.560Z,5.80
2018-05-03T03:07:12.410Z,5.90
2018-05-03T03:13:48.065Z,6.37
2018-05-03T03:27:27.377Z,6.63
2018-05-03T03:40:38.863Z,6.80
2018-05-03T03:46:43.323Z,6.90
2018-05-03T03:52:47.741Z,6.40
2018-05-03T03:58:52.728Z,7.63
2018-05-03T04:04:57.621Z,7.83
2018-05-03T04:11:02.059Z,8.70
2018-05-03T04:17:07.199Z,6.73
2018-05-03T04:23:43.356Z,7.30
2018-05-03T04:29:47.882Z,6.70
2018-05-03T04:35:53.095Z,7.87
2018-05-03T04:41:57.506Z,7.23
2018-05-03T04:48:01.896Z,7.00
2018-05-03T04:54:06.310Z,6.40
2018-05-03T05:00:10.708Z,9.97
2018-05-03T05:06:15.181Z,11.27
2018-05-03T05:12:19.613Z,7.20
2018-05-03T05:18:24.137Z,8.30
2018-05-03T05:24:28.534Z,11.93
2018-05-03T05:30:32.911Z,11.90
2018-05-03T05:36:37.291Z,12.23
2018-05-03T05:42:41.733Z,11.93
2018-05-03T05:48:46.185Z,8.43
2018-05-03T05:54:50.820Z,6.70
2018-05-03T06:00:56.041Z,7.57
2018-05-03T06:07:00.461Z,6.37
2018-05-03T06:13:04.846Z,8.27
2018-05-03T06:19:09.228Z,8.90
2018-05-03T06:25:13.611Z,8.03
2018-05-03T06:31:18.876Z,8.20
2018-05-03T06:37:23.352Z,8.27
2018-05-03T06:43:27.715Z,12.63
2018-05-03T06:49:32.945Z,8.30
2018-05-03T06:55:37.364Z,7.07
2018-05-03T07:01:41.781Z,7.60
2018-05-03T07:07:46.131Z,7.70
2018-05-03T07:13:51.304Z,8.33
2018-05-03T07:19:55.835Z,7.37
2018-05-03T07:26:00.184Z,8.50
2018-05-03T07:32:05.469Z,7.80
2018-05-03T07:38:10.596Z,8.00
2018-05-03T07:44:15.086Z,7.80
2018-05-03T07:50:19.572Z,8.07
2018-05-03T07:56:24.027Z,9.67
2018-05-03T08:02:29.384Z,10.90
2018-05-03T08:08:33.801Z,11.20
2018-05-03T08:14:38.267Z,10.70
2018-05-03T08:20:42.652Z,11.97
2018-05-03T08:26:47.019Z,12.20
2018-05-03T08:32:52.022Z,11.20
2018-05-03T08:38:56.411Z,12.20
2018-05-03T08:45:00.856Z,11.60
2018-05-03T08:51:05.396Z,10.13
2018-05-03T08:57:10.536Z,10.47
2018-05-03T09:03:14.907Z,10.87
2018-05-03T09:09:19.504Z,11.70
2018-05-03T09:15:24.389Z,10.90
2018-05-03T09:21:28.847Z,10.20
2018-05-03T09:27:33.302Z,11.70
2018-05-03T09:33:37.697Z,10.90
2018-05-03T09:39:42.083Z,5.80
2018-05-03T09:45:46.549Z,6.60
2018-05-03T09:51:51.221Z,6.90
2018-05-03T09:57:55.860Z,6.33
2018-05-03T10:04:00.289Z,6.87
2018-05-03T10:10:04.674Z,6.60
2018-05-03T10:16:09.028Z,6.10
2018-05-03T10:22:13.443Z,6.20
2018-05-03T10:28:17.824Z,5.30
2018-05-03T10:34:22.475Z,5.00
2018-05-03T10:40:26.852Z,5.13
2018-05-03T10:46:31.320Z,5.10
2018-05-03T10:52:35.711Z,5.13
2018-05-03T10:58:40.220Z,3.93
2018-05-03T11:04:44.627Z,3.70
2018-05-03T11:10:49.883Z,4.17
2018-05-03T11:16:54.561Z,4.40
2018-05-03T11:22:59.016Z,2.80
2018-05-03T11:29:03.474Z,2.90
2018-05-03T11:35:07.872Z,2.93
2018-05-03T11:41:12.246Z,2.37
2018-05-03T11:47:16.628Z,2.40
2018-05-03T11:53:21.317Z,2.07
2018-05-03T11:59:25.836Z,2.10
2018-05-03T12:05:30.170Z,2.20
2018-05-03T12:11:34.528Z,2.43
2018-05-03T12:17:38.908Z,2.70
2018-05-03T12:23:43.297Z,2.60
2018-05-03T12:29:47.941Z,2.50
2018-05-03T12:35:52.663Z,2.90
2018-05-03T12:41:57.038Z,2.50
2018-05-03T12:48:01.421Z,2.20
2018-05-03T12:54:05.791Z,2.30
2018-05-03T13:00:10.243Z,2.20
2018-05-03T13:06:14.669Z,4.00
2018-05-03T13:12:19.181Z,1.90
2018-05-03T13:18:23.840Z,1.90
2018-05-03T13:24:29.729Z,1.83
2018-05-03T13:30:34.096Z,1.87
2018-05-03T13:36:38.548Z,1.67
2018-05-03T13:42:42.907Z,1.77
2018-05-03T13:48:47.289Z,2.17
2018-05-03T13:54:51.728Z,2.13
2018-05-03T14:00:56.871Z,2.40
2018-05-03T14:07:01.375Z,2.40
2018-05-03T14:13:05.875Z,4.20
2018-05-03T14:19:10.208Z,2.90
2018-05-03T14:25:14.665Z,6.80
2018-05-03T14:31:19.969Z,17.80
2018-05-03T14:37:24.607Z,2.00
2018-05-03T14:43:29.732Z,2.10
2018-05-03T14:49:34.860Z,1.90
2018-05-03T14:55:39.292Z,2.93
2018-05-03T15:01:43.784Z,2.27
2018-05-03T15:07:48.231Z,2.27
2018-05-03T15:13:53.407Z,2.37
2018-05-03T15:19:57.799Z,2.67
2018-05-03T15:36:40.091Z,2.73
2018-05-03T15:42:45.277Z,2.63
2018-05-03T15:48:50.731Z,2.53
2018-05-03T15:54:55.701Z,2.00
2018-05-03T16:01:00.146Z,2.07
2018-05-03T16:07:05.288Z,2.33
2018-05-03T16:13:09.766Z,3.03
2018-05-03T16:19:14.116Z,2.20
2018-05-03T16:25:18.588Z,2.77
2018-05-03T16:31:23.281Z,2.53
2018-05-03T16:37:27.655Z,3.63
2018-05-03T16:43:32.092Z,2.97
2018-05-03T16:49:37.309Z,2.93
2018-05-03T16:55:41.744Z,2.33
2018-05-03T17:01:46.100Z,3.30
2018-05-03T17:07:51.163Z,3.93
2018-05-03T17:13:55.695Z,3.30
2018-05-03T17:20:00.048Z,3.17
2018-05-03T17:26:04.424Z,3.50
2018-05-03T17:32:08.815Z,2.70
2018-05-03T17:38:13.318Z,2.17
2018-05-03T17:44:18.646Z,2.97
2018-05-03T17:50:23.296Z,3.00
2018-05-03T17:56:28.384Z,2.80
2018-05-03T18:02:33.503Z,2.50
2018-05-03T18:08:37.851Z,2.73
2018-05-03T18:14:43.142Z,2.50
2018-05-03T18:20:47.553Z,2.70
2018-05-03T18:26:52.110Z,2.40
2018-05-03T18:32:57.248Z,3.43
2018-05-03T18:39:01.643Z,2.70
2018-05-03T18:45:06.050Z,3.13
2018-05-03T18:51:11.207Z,2.80
2018-05-03T18:57:15.614Z,2.80
2018-05-03T19:03:20.057Z,2.77
2018-05-03T19:09:24.600Z,2.87
2018-05-03T19:15:28.908Z,2.93
2018-05-03T19:21:33.324Z,2.80
2018-05-03T19:27:37.671Z,2.23
2018-05-03T19:33:42.030Z,2.27
2018-05-03T19:39:46.387Z,2.50
2018-05-03T19:45:51.423Z,2.10
2018-05-03T19:51:56.015Z,2.20
2018-05-03T19:58:00.577Z,2.37
2018-05-03T20:04:05.714Z,2.47
2018-05-03T20:10:10.058Z,1.50
2018-05-03T20:16:15.263Z,2.93
2018-05-03T20:22:19.823Z,2.43
2018-05-03T20:28:24.437Z,2.40
2018-05-03T20:34:28.832Z,1.93
2018-05-03T20:40:33.289Z,3.00
2018-05-03T20:46:37.644Z,2.60
2018-05-03T20:52:42.081Z,2.37
2018-05-03T20:58:46.445Z,2.30
2018-05-03T21:04:52.032Z,2.60
2018-05-03T21:10:56.445Z,2.20
2018-05-03T21:17:01.641Z,2.10
2018-05-03T21:23:06.040Z,2.40
2018-05-03T21:29:10.445Z,2.03
2018-05-03T21:35:14.810Z,3.20
2018-05-03T21:41:19.467Z,1.73
2018-05-03T21:47:24.123Z,2.10
2018-05-03T21:53:28.469Z,2.37
2018-05-03T21:59:32.913Z,2.20
2018-05-03T22:05:37.378Z,4.57
2018-05-03T22:11:41.782Z,2.13
2018-05-03T22:17:46.142Z,2.60
2018-05-03T22:23:51.244Z,2.57
2018-05-03T22:29:55.753Z,2.00
2018-05-03T22:36:00.102Z,1.87
2018-05-03T22:42:04.507Z,2.83
2018-05-03T22:48:08.878Z,2.50
2018-05-03T22:54:13.236Z,2.30
2018-05-03T23:00:17.585Z,2.30
2018-05-03T23:06:21.670Z,2.43
2018-05-03T23:12:26.007Z,2.20
2018-05-03T23:18:32.041Z,2.30
2018-05-03T23:24:36.751Z,2.60
2018-05-03T23:30:41.108Z,3.17
2018-05-03T23:36:45.461Z,2.37
2018-05-03T23:42:51.379Z,3.40
2018-05-03T23:48:56.485Z,2.40
2018-05-03T23:55:00.825Z,2.70
